sensor_id;sensor_type;location;lat;lon;timestamp;P1;durP1;ratioP1;P2;durP2;ratioP2
966;SDS011;56108;48.730;9.304;2022-08-19T00:00:35;19.15;;;17.45;;
966;SDS011;56108;48.730;9.304;2022-08-19T00:02:43;18.88;;;16.95;;
966;SDS011;56108;48.730;9.304;2022-08-19T00:04:53;18.63;;;16.95;;
966;SDS011;56108;48.730;9.304;2022-08-19T00:07:01;19.20;;;17.55;;
966;SDS011;56108;48.730;9.304;2022-08-19T00:09:13;19.02;;;17.33;;
966;SDS011;56108;48.730;9.304;2022-08-19T00:11:26;19.65;;;17.95;;
966;SDS011;56108;48.730;9.304;2022-08-19T00:13:34;19.88;;;18.15;;
966;SDS011;56108;48.730;9.304;2022-08-19T00:15:43;19.98;;;18.17;;
966;SDS011;56108;48.730;9.304;2022-08-19T00:17:51;20.13;;;18.13;;
966;SDS011;56108;48.730;9.304;2022-08-19T00:19:59;19.45;;;17.65;;
966;SDS011;56108;48.730;9.304;2022-08-19T00:22:07;21.95;;;19.95;;
966;SDS011;56108;48.730;9.304;2022-08-19T00:24:15;20.27;;;18.48;;
966;SDS011;56108;48.730;9.304;2022-08-19T00:26:28;20.05;;;18.25;;
966;SDS011;56108;48.730;9.304;2022-08-19T00:28:36;21.55;;;19.58;;
966;SDS011;56108;48.730;9.304;2022-08-19T00:30:44;19.52;;;17.92;;
966;SDS011;56108;48.730;9.304;2022-08-19T00:32:56;19.90;;;18.20;;
966;SDS011;56108;48.730;9.304;2022-08-19T00:35:05;21.35;;;19.40;;
966;SDS011;56108;48.730;9.304;2022-08-19T00:37:15;20.38;;;18.58;;
966;SDS011;56108;48.730;9.304;2022-08-19T00:39:23;20.27;;;18.48;;
966;SDS011;56108;48.730;9.304;2022-08-19T00:41:34;19.77;;;17.77;;
966;SDS011;56108;48.730;9.304;2022-08-19T00:43:42;20.73;;;18.73;;
966;SDS011;56108;48.730;9.304;2022-08-19T00:45:51;19.73;;;17.73;;
966;SDS011;56108;48.730;9.304;2022-08-19T00:48:02;20.88;;;19.02;;
966;SDS011;56108;48.730;9.304;2022-08-19T00:50:18;21.92;;;19.92;;
966;SDS011;56108;48.730;9.304;2022-08-19T00:52:29;21.10;;;19.02;;
966;SDS011;56108;48.730;9.304;2022-08-19T00:54:51;21.30;;;19.30;;
966;SDS011;56108;48.730;9.304;2022-08-19T00:57:03;22.83;;;20.75;;
966;SDS011;56108;48.730;9.304;2022-08-19T00:59:13;21.60;;;19.40;;
966;SDS011;56108;48.730;9.304;2022-08-19T01:01:43;21.60;;;19.60;;
966;SDS011;56108;48.730;9.304;2022-08-19T01:03:53;22.17;;;20.17;;
966;SDS011;56108;48.730;9.304;2022-08-19T01:06:04;19.98;;;18.15;;
966;SDS011;56108;48.730;9.304;2022-08-19T01:08:13;20.27;;;18.50;;
966;SDS011;56108;48.730;9.304;2022-08-19T01:10:23;20.48;;;18.67;;
966;SDS011;56108;48.730;9.304;2022-08-19T01:12:42;21.20;;;19.27;;
966;SDS011;56108;48.730;9.304;2022-08-19T01:14:51;20.35;;;18.50;;
966;SDS011;56108;48.730;9.304;2022-08-19T01:17:02;21.88;;;19.88;;
966;SDS011;56108;48.730;9.304;2022-08-19T01:19:13;21.98;;;19.88;;
966;SDS011;56108;48.730;9.304;2022-08-19T01:21:26;20.50;;;18.60;;
966;SDS011;56108;48.730;9.304;2022-08-19T01:23:45;21.20;;;19.08;;
966;SDS011;56108;48.730;9.304;2022-08-19T01:25:53;20.77;;;18.85;;
966;SDS011;56108;48.730;9.304;2022-08-19T01:28:03;20.45;;;18.65;;
966;SDS011;56108;48.730;9.304;2022-08-19T01:30:16;19.60;;;18.00;;
966;SDS011;56108;48.730;9.304;2022-08-19T01:32:27;20.00;;;18.17;;
966;SDS011;56108;48.730;9.304;2022-08-19T01:34:37;20.15;;;18.25;;
966;SDS011;56108;48.730;9.304;2022-08-19T01:36:46;20.27;;;18.08;;
966;SDS011;56108;48.730;9.304;2022-08-19T01:38:58;21.52;;;19.33;;
966;SDS011;56108;48.730;9.304;2022-08-19T01:41:09;20.58;;;18.67;;
966;SDS011;56108;48.730;9.304;2022-08-19T01:43:18;22.27;;;20.17;;
966;SDS011;56108;48.730;9.304;2022-08-19T01:45:27;20.08;;;18.27;;
966;SDS011;56108;48.730;9.304;2022-08-19T01:47:36;20.13;;;18.23;;
966;SDS011;56108;48.730;9.304;2022-08-19T01:49:45;20.48;;;18.00;;
966;SDS011;56108;48.730;9.304;2022-08-19T01:51:53;21.08;;;18.98;;
966;SDS011;56108;48.730;9.304;2022-08-19T01:54:04;21.17;;;19.15;;
966;SDS011;56108;48.730;9.304;2022-08-19T01:56:12;20.00;;;18.00;;
966;SDS011;56108;48.730;9.304;2022-08-19T01:58:21;20.45;;;18.45;;
966;SDS011;56108;48.730;9.304;2022-08-19T02:00:34;20.95;;;18.98;;
966;SDS011;56108;48.730;9.304;2022-08-19T02:02:42;21.60;;;19.50;;
966;SDS011;56108;48.730;9.304;2022-08-19T02:04:50;21.60;;;19.50;;
966;SDS011;56108;48.730;9.304;2022-08-19T02:06:59;19.40;;;17.60;;
966;SDS011;56108;48.730;9.304;2022-08-19T02:09:09;19.58;;;17.77;;
966;SDS011;56108;48.730;9.304;2022-08-19T02:11:18;21.30;;;19.40;;
966;SDS011;56108;48.730;9.304;2022-08-19T02:13:28;20.65;;;18.75;;
966;SDS011;56108;48.730;9.304;2022-08-19T02:15:37;21.48;;;19.50;;
966;SDS011;56108;48.730;9.304;2022-08-19T02:17:45;20.40;;;18.60;;
966;SDS011;56108;48.730;9.304;2022-08-19T02:19:54;20.75;;;18.85;;
966;SDS011;56108;48.730;9.304;2022-08-19T02:22:01;20.17;;;18.15;;
966;SDS011;56108;48.730;9.304;2022-08-19T02:24:12;19.98;;;18.17;;
966;SDS011;56108;48.730;9.304;2022-08-19T02:26:21;20.70;;;18.75;;
966;SDS011;56108;48.730;9.304;2022-08-19T02:28:32;21.65;;;19.65;;
966;SDS011;56108;48.730;9.304;2022-08-19T02:30:41;20.95;;;19.05;;
966;SDS011;56108;48.730;9.304;2022-08-19T02:32:49;23.02;;;20.75;;
966;SDS011;56108;48.730;9.304;2022-08-19T02:34:57;21.95;;;19.80;;
966;SDS011;56108;48.730;9.304;2022-08-19T02:37:05;23.58;;;19.85;;
966;SDS011;56108;48.730;9.304;2022-08-19T02:39:41;22.17;;;20.08;;
966;SDS011;56108;48.730;9.304;2022-08-19T02:41:46;21.60;;;19.50;;
966;SDS011;56108;48.730;9.304;2022-08-19T02:43:55;22.27;;;20.13;;
966;SDS011;56108;48.730;9.304;2022-08-19T02:46:25;22.50;;;20.20;;
966;SDS011;56108;48.730;9.304;2022-08-19T02:48:34;23.17;;;20.88;;
966;SDS011;56108;48.730;9.304;2022-08-19T02:50:43;23.20;;;21.05;;
966;SDS011;56108;48.730;9.304;2022-08-19T02:52:57;23.25;;;20.92;;
966;SDS011;56108;48.730;9.304;2022-08-19T02:55:09;23.35;;;20.85;;
966;SDS011;56108;48.730;9.304;2022-08-19T02:57:17;22.08;;;19.88;;
966;SDS011;56108;48.730;9.304;2022-08-19T02:59:25;24.20;;;21.90;;
966;SDS011;56108;48.730;9.304;2022-08-19T03:01:37;22.77;;;20.58;;
966;SDS011;56108;48.730;9.304;2022-08-19T03:03:47;25.50;;;23.02;;
966;SDS011;56108;48.730;9.304;2022-08-19T03:06:06;24.77;;;22.30;;
966;SDS011;56108;48.730;9.304;2022-08-19T03:08:16;24.80;;;22.38;;
966;SDS011;56108;48.730;9.304;2022-08-19T03:10:27;23.25;;;20.80;;
966;SDS011;56108;48.730;9.304;2022-08-19T03:12:36;23.50;;;21.25;;
966;SDS011;56108;48.730;9.304;2022-08-19T03:14:44;23.73;;;21.42;;
966;SDS011;56108;48.730;9.304;2022-08-19T03:16:53;24.90;;;22.50;;
966;SDS011;56108;48.730;9.304;2022-08-19T03:19:02;24.90;;;22.40;;
966;SDS011;56108;48.730;9.304;2022-08-19T03:21:16;26.20;;;23.67;;
966;SDS011;56108;48.730;9.304;2022-08-19T03:23:25;24.85;;;22.33;;
966;SDS011;56108;48.730;9.304;2022-08-19T03:25:38;25.42;;;23.02;;
966;SDS011;56108;48.730;9.304;2022-08-19T03:27:48;24.40;;;22.00;;
966;SDS011;56108;48.730;9.304;2022-08-19T03:29:55;24.45;;;22.05;;
966;SDS011;56108;48.730;9.304;2022-08-19T03:32:04;26.65;;;23.95;;
966;SDS011;56108;48.730;9.304;2022-08-19T03:34:34;26.48;;;24.08;;
966;SDS011;56108;48.730;9.304;2022-08-19T03:36:44;26.85;;;24.15;;
966;SDS011;56108;48.730;9.304;2022-08-19T03:38:54;24.98;;;22.33;;
966;SDS011;56108;48.730;9.304;2022-08-19T03:41:08;24.80;;;22.23;;
966;SDS011;56108;48.730;9.304;2022-08-19T03:43:19;25.88;;;23.25;;
966;SDS011;56108;48.730;9.304;2022-08-19T03:45:27;27.92;;;25.23;;
966;SDS011;56108;48.730;9.304;2022-08-19T03:47:35;26.27;;;23.45;;
966;SDS011;56108;48.730;9.304;2022-08-19T03:49:44;28.27;;;25.63;;
966;SDS011;56108;48.730;9.304;2022-08-19T03:51:52;28.33;;;25.48;;
966;SDS011;56108;48.730;9.304;2022-08-19T03:54:03;28.55;;;25.52;;
966;SDS011;56108;48.730;9.304;2022-08-19T03:56:16;28.52;;;25.73;;
966;SDS011;56108;48.730;9.304;2022-08-19T03:58:27;28.48;;;25.67;;
966;SDS011;56108;48.730;9.304;2022-08-19T04:00:37;30.73;;;27.67;;
966;SDS011;56108;48.730;9.304;2022-08-19T04:02:49;29.65;;;26.65;;
966;SDS011;56108;48.730;9.304;2022-08-19T04:05:04;29.55;;;25.90;;
966;SDS011;56108;48.730;9.304;2022-08-19T04:07:13;30.30;;;27.13;;
966;SDS011;56108;48.730;9.304;2022-08-19T04:09:25;30.90;;;27.63;;
966;SDS011;56108;48.730;9.304;2022-08-19T04:11:38;29.50;;;26.80;;
966;SDS011;56108;48.730;9.304;2022-08-19T04:13:49;29.55;;;26.70;;
966;SDS011;56108;48.730;9.304;2022-08-19T04:15:58;29.13;;;26.13;;
966;SDS011;56108;48.730;9.304;2022-08-19T04:18:06;28.63;;;25.88;;
966;SDS011;56108;48.730;9.304;2022-08-19T04:20:15;30.55;;;27.55;;
966;SDS011;56108;48.730;9.304;2022-08-19T04:22:25;30.25;;;27.27;;
966;SDS011;56108;48.730;9.304;2022-08-19T04:24:37;30.45;;;27.35;;
966;SDS011;56108;48.730;9.304;2022-08-19T04:26:50;31.65;;;28.42;;
966;SDS011;56108;48.730;9.304;2022-08-19T04:28:59;30.48;;;27.48;;
966;SDS011;56108;48.730;9.304;2022-08-19T04:31:17;32.67;;;29.38;;
966;SDS011;56108;48.730;9.304;2022-08-19T04:33:27;30.60;;;27.40;;
966;SDS011;56108;48.730;9.304;2022-08-19T04:35:39;30.10;;;27.05;;
966;SDS011;56108;48.730;9.304;2022-08-19T04:37:49;28.85;;;26.08;;
966;SDS011;56108;48.730;9.304;2022-08-19T04:39:59;30.98;;;27.75;;
966;SDS011;56108;48.730;9.304;2022-08-19T04:42:22;29.45;;;26.42;;
966;SDS011;56108;48.730;9.304;2022-08-19T04:44:46;30.80;;;27.80;;
966;SDS011;56108;48.730;9.304;2022-08-19T04:46:59;31.45;;;28.30;;
966;SDS011;56108;48.730;9.304;2022-08-19T04:49:15;31.70;;;28.50;;
966;SDS011;56108;48.730;9.304;2022-08-19T04:51:26;31.48;;;28.48;;
966;SDS011;56108;48.730;9.304;2022-08-19T04:53:36;31.85;;;28.58;;
966;SDS011;56108;48.730;9.304;2022-08-19T04:55:45;30.85;;;27.73;;
966;SDS011;56108;48.730;9.304;2022-08-19T04:57:55;32.50;;;29.30;;
966;SDS011;56108;48.730;9.304;2022-08-19T05:00:07;30.90;;;27.90;;
966;SDS011;56108;48.730;9.304;2022-08-19T05:02:18;32.10;;;29.05;;
966;SDS011;56108;48.730;9.304;2022-08-19T05:04:27;31.30;;;28.35;;
966;SDS011;56108;48.730;9.304;2022-08-19T05:06:37;31.05;;;27.98;;
966;SDS011;56108;48.730;9.304;2022-08-19T05:08:45;32.50;;;29.15;;
966;SDS011;56108;48.730;9.304;2022-08-19T05:10:53;31.23;;;28.10;;
966;SDS011;56108;48.730;9.304;2022-08-19T05:13:04;32.78;;;29.60;;
966;SDS011;56108;48.730;9.304;2022-08-19T05:15:16;32.40;;;29.00;;
966;SDS011;56108;48.730;9.304;2022-08-19T05:17:25;30.27;;;27.42;;
966;SDS011;56108;48.730;9.304;2022-08-19T05:19:42;31.60;;;28.40;;
966;SDS011;56108;48.730;9.304;2022-08-19T05:22:04;30.23;;;27.23;;
966;SDS011;56108;48.730;9.304;2022-08-19T05:24:26;32.38;;;29.17;;
966;SDS011;56108;48.730;9.304;2022-08-19T05:26:35;32.47;;;28.38;;
966;SDS011;56108;48.730;9.304;2022-08-19T05:28:47;30.30;;;27.30;;
966;SDS011;56108;48.730;9.304;2022-08-19T05:30:58;30.88;;;27.85;;
966;SDS011;56108;48.730;9.304;2022-08-19T05:33:06;30.33;;;27.33;;
966;SDS011;56108;48.730;9.304;2022-08-19T05:35:16;29.90;;;26.90;;
966;SDS011;56108;48.730;9.304;2022-08-19T05:37:27;29.45;;;26.80;;
966;SDS011;56108;48.730;9.304;2022-08-19T05:39:35;30.20;;;27.30;;
966;SDS011;56108;48.730;9.304;2022-08-19T05:41:47;29.73;;;26.67;;
966;SDS011;56108;48.730;9.304;2022-08-19T05:44:00;32.25;;;28.98;;
966;SDS011;56108;48.730;9.304;2022-08-19T05:46:16;34.20;;;30.52;;
966;SDS011;56108;48.730;9.304;2022-08-19T05:48:31;30.83;;;27.83;;
966;SDS011;56108;48.730;9.304;2022-08-19T05:50:40;30.23;;;27.27;;
966;SDS011;56108;48.730;9.304;2022-08-19T05:52:49;30.65;;;27.58;;
966;SDS011;56108;48.730;9.304;2022-08-19T05:54:57;31.05;;;28.13;;
966;SDS011;56108;48.730;9.304;2022-08-19T05:57:08;30.90;;;27.73;;
966;SDS011;56108;48.730;9.304;2022-08-19T05:59:20;31.17;;;28.00;;
966;SDS011;56108;48.730;9.304;2022-08-19T06:01:28;30.30;;;27.40;;
966;SDS011;56108;48.730;9.304;2022-08-19T06:03:37;31.20;;;28.05;;
966;SDS011;56108;48.730;9.304;2022-08-19T06:05:45;31.52;;;28.30;;
966;SDS011;56108;48.730;9.304;2022-08-19T06:07:55;31.30;;;28.10;;
966;SDS011;56108;48.730;9.304;2022-08-19T06:10:10;31.42;;;28.42;;
966;SDS011;56108;48.730;9.304;2022-08-19T06:12:19;34.22;;;30.63;;
966;SDS011;56108;48.730;9.304;2022-08-19T06:14:38;34.08;;;30.75;;
966;SDS011;56108;48.730;9.304;2022-08-19T06:16:46;32.75;;;29.60;;
966;SDS011;56108;48.730;9.304;2022-08-19T06:18:59;32.17;;;29.02;;
966;SDS011;56108;48.730;9.304;2022-08-19T06:21:11;33.28;;;30.10;;
966;SDS011;56108;48.730;9.304;2022-08-19T06:23:19;33.88;;;30.60;;
966;SDS011;56108;48.730;9.304;2022-08-19T06:25:27;33.67;;;30.27;;
966;SDS011;56108;48.730;9.304;2022-08-19T06:27:35;32.72;;;29.42;;
966;SDS011;56108;48.730;9.304;2022-08-19T06:30:08;32.90;;;29.73;;
966;SDS011;56108;48.730;9.304;2022-08-19T06:32:17;31.85;;;28.75;;
966;SDS011;56108;48.730;9.304;2022-08-19T06:34:26;31.88;;;28.77;;
966;SDS011;56108;48.730;9.304;2022-08-19T06:36:36;33.78;;;30.27;;
966;SDS011;56108;48.730;9.304;2022-08-19T06:38:45;31.73;;;28.70;;
966;SDS011;56108;48.730;9.304;2022-08-19T06:40:59;32.67;;;29.20;;
966;SDS011;56108;48.730;9.304;2022-08-19T06:43:12;32.00;;;28.80;;
966;SDS011;56108;48.730;9.304;2022-08-19T06:45:25;29.20;;;26.20;;
966;SDS011;56108;48.730;9.304;2022-08-19T06:47:39;32.22;;;29.02;;
966;SDS011;56108;48.730;9.304;2022-08-19T06:49:53;32.05;;;28.95;;
966;SDS011;56108;48.730;9.304;2022-08-19T06:52:12;32.40;;;29.20;;
966;SDS011;56108;48.730;9.304;2022-08-19T06:54:21;32.42;;;29.33;;
966;SDS011;56108;48.730;9.304;2022-08-19T06:56:35;31.60;;;28.50;;
966;SDS011;56108;48.730;9.304;2022-08-19T06:58:44;32.53;;;29.23;;
966;SDS011;56108;48.730;9.304;2022-08-19T07:01:00;31.90;;;28.80;;
966;SDS011;56108;48.730;9.304;2022-08-19T07:03:12;31.35;;;28.23;;
966;SDS011;56108;48.730;9.304;2022-08-19T07:05:21;31.83;;;28.50;;
966;SDS011;56108;48.730;9.304;2022-08-19T07:07:30;31.95;;;28.70;;
966;SDS011;56108;48.730;9.304;2022-08-19T07:09:39;35.08;;;30.55;;
966;SDS011;56108;48.730;9.304;2022-08-19T07:12:00;32.40;;;29.20;;
966;SDS011;56108;48.730;9.304;2022-08-19T07:14:12;32.50;;;29.30;;
966;SDS011;56108;48.730;9.304;2022-08-19T07:16:26;34.58;;;31.08;;
966;SDS011;56108;48.730;9.304;2022-08-19T07:18:34;34.58;;;30.88;;
966;SDS011;56108;48.730;9.304;2022-08-19T07:20:47;33.80;;;30.35;;
966;SDS011;56108;48.730;9.304;2022-08-19T07:22:55;34.65;;;31.10;;
966;SDS011;56108;48.730;9.304;2022-08-19T07:25:05;33.53;;;30.13;;
966;SDS011;56108;48.730;9.304;2022-08-19T07:27:14;33.92;;;30.60;;
966;SDS011;56108;48.730;9.304;2022-08-19T07:29:29;34.22;;;30.85;;
966;SDS011;56108;48.730;9.304;2022-08-19T07:31:41;34.88;;;31.42;;
966;SDS011;56108;48.730;9.304;2022-08-19T07:33:50;34.42;;;31.00;;
966;SDS011;56108;48.730;9.304;2022-08-19T07:36:02;34.10;;;30.98;;
966;SDS011;56108;48.730;9.304;2022-08-19T07:38:12;35.78;;;32.15;;
966;SDS011;56108;48.730;9.304;2022-08-19T07:40:20;35.13;;;31.83;;
966;SDS011;56108;48.730;9.304;2022-08-19T07:42:29;35.92;;;32.28;;
966;SDS011;56108;48.730;9.304;2022-08-19T07:44:37;35.03;;;31.52;;
966;SDS011;56108;48.730;9.304;2022-08-19T07:46:56;35.65;;;32.30;;
966;SDS011;56108;48.730;9.304;2022-08-19T07:49:05;33.30;;;29.95;;
966;SDS011;56108;48.730;9.304;2022-08-19T07:51:20;35.63;;;32.15;;
966;SDS011;56108;48.730;9.304;2022-08-19T07:53:42;34.50;;;31.10;;
966;SDS011;56108;48.730;9.304;2022-08-19T07:55:50;34.78;;;31.38;;
966;SDS011;56108;48.730;9.304;2022-08-19T07:57:59;34.42;;;30.83;;
966;SDS011;56108;48.730;9.304;2022-08-19T08:00:08;35.80;;;32.20;;
966;SDS011;56108;48.730;9.304;2022-08-19T08:02:20;35.72;;;32.28;;
966;SDS011;56108;48.730;9.304;2022-08-19T08:04:28;34.45;;;30.85;;
966;SDS011;56108;48.730;9.304;2022-08-19T08:06:49;33.70;;;30.40;;
966;SDS011;56108;48.730;9.304;2022-08-19T08:09:18;36.78;;;32.85;;
966;SDS011;56108;48.730;9.304;2022-08-19T08:11:31;35.22;;;31.52;;
966;SDS011;56108;48.730;9.304;2022-08-19T08:13:41;35.25;;;31.75;;
966;SDS011;56108;48.730;9.304;2022-08-19T08:16:04;33.72;;;30.33;;
966;SDS011;56108;48.730;9.304;2022-08-19T08:18:20;33.78;;;30.30;;
966;SDS011;56108;48.730;9.304;2022-08-19T08:20:33;34.80;;;31.40;;
966;SDS011;56108;48.730;9.304;2022-08-19T08:22:42;35.20;;;31.60;;
966;SDS011;56108;48.730;9.304;2022-08-19T08:25:07;33.33;;;30.23;;
966;SDS011;56108;48.730;9.304;2022-08-19T08:27:20;33.63;;;30.05;;
966;SDS011;56108;48.730;9.304;2022-08-19T08:29:30;34.70;;;31.35;;
966;SDS011;56108;48.730;9.304;2022-08-19T08:31:39;33.42;;;29.83;;
966;SDS011;56108;48.730;9.304;2022-08-19T08:33:50;33.42;;;30.10;;
966;SDS011;56108;48.730;9.304;2022-08-19T08:35:59;34.30;;;31.00;;
966;SDS011;56108;48.730;9.304;2022-08-19T08:38:07;34.22;;;30.92;;
966;SDS011;56108;48.730;9.304;2022-08-19T08:40:17;34.97;;;31.52;;
966;SDS011;56108;48.730;9.304;2022-08-19T08:42:30;34.65;;;31.17;;
966;SDS011;56108;48.730;9.304;2022-08-19T08:44:46;34.30;;;30.90;;
966;SDS011;56108;48.730;9.304;2022-08-19T08:47:21;33.63;;;30.45;;
966;SDS011;56108;48.730;9.304;2022-08-19T08:49:40;34.10;;;30.80;;
966;SDS011;56108;48.730;9.304;2022-08-19T08:51:58;34.80;;;31.45;;
966;SDS011;56108;48.730;9.304;2022-08-19T08:54:13;32.50;;;29.40;;
966;SDS011;56108;48.730;9.304;2022-08-19T08:57:15;32.50;;;29.13;;
966;SDS011;56108;48.730;9.304;2022-08-19T08:59:50;32.40;;;29.10;;
966;SDS011;56108;48.730;9.304;2022-08-19T09:02:09;33.10;;;29.67;;
966;SDS011;56108;48.730;9.304;2022-08-19T09:04:17;32.33;;;29.15;;
966;SDS011;56108;48.730;9.304;2022-08-19T09:06:32;33.00;;;29.75;;
966;SDS011;56108;48.730;9.304;2022-08-19T09:08:49;31.92;;;28.85;;
966;SDS011;56108;48.730;9.304;2022-08-19T09:11:08;33.20;;;30.02;;
966;SDS011;56108;48.730;9.304;2022-08-19T09:13:44;33.53;;;30.05;;
966;SDS011;56108;48.730;9.304;2022-08-19T09:16:05;32.67;;;29.48;;
966;SDS011;56108;48.730;9.304;2022-08-19T09:18:16;33.22;;;29.80;;
966;SDS011;56108;48.730;9.304;2022-08-19T09:20:24;33.15;;;29.63;;
966;SDS011;56108;48.730;9.304;2022-08-19T09:22:36;34.88;;;31.27;;
966;SDS011;56108;48.730;9.304;2022-08-19T09:24:45;32.60;;;29.60;;
966;SDS011;56108;48.730;9.304;2022-08-19T09:26:53;35.47;;;32.05;;
966;SDS011;56108;48.730;9.304;2022-08-19T09:29:03;32.20;;;29.17;;
966;SDS011;56108;48.730;9.304;2022-08-19T09:31:12;31.50;;;28.55;;
966;SDS011;56108;48.730;9.304;2022-08-19T09:33:23;30.90;;;27.80;;
966;SDS011;56108;48.730;9.304;2022-08-19T09:35:33;31.17;;;28.17;;
966;SDS011;56108;48.730;9.304;2022-08-19T09:37:59;32.70;;;29.27;;
966;SDS011;56108;48.730;9.304;2022-08-19T09:40:08;30.25;;;27.45;;
966;SDS011;56108;48.730;9.304;2022-08-19T09:42:17;30.92;;;27.73;;
966;SDS011;56108;48.730;9.304;2022-08-19T09:44:34;31.45;;;28.55;;
966;SDS011;56108;48.730;9.304;2022-08-19T09:46:42;30.20;;;27.23;;
966;SDS011;56108;48.730;9.304;2022-08-19T09:48:51;29.83;;;26.55;;
966;SDS011;56108;48.730;9.304;2022-08-19T09:51:07;29.75;;;26.75;;
966;SDS011;56108;48.730;9.304;2022-08-19T09:53:22;31.40;;;28.17;;
966;SDS011;56108;48.730;9.304;2022-08-19T09:55:32;31.45;;;27.15;;
966;SDS011;56108;48.730;9.304;2022-08-19T09:57:39;31.45;;;28.45;;
966;SDS011;56108;48.730;9.304;2022-08-19T09:59:48;30.45;;;27.55;;
966;SDS011;56108;48.730;9.304;2022-08-19T10:01:57;31.23;;;28.08;;
966;SDS011;56108;48.730;9.304;2022-08-19T10:04:14;30.95;;;28.05;;
966;SDS011;56108;48.730;9.304;2022-08-19T10:06:27;30.50;;;27.60;;
966;SDS011;56108;48.730;9.304;2022-08-19T10:08:52;30.00;;;27.20;;
966;SDS011;56108;48.730;9.304;2022-08-19T10:11:02;30.88;;;27.88;;
966;SDS011;56108;48.730;9.304;2022-08-19T10:13:31;32.25;;;29.05;;
966;SDS011;56108;48.730;9.304;2022-08-19T10:15:40;30.15;;;27.27;;
966;SDS011;56108;48.730;9.304;2022-08-19T10:17:52;30.67;;;27.80;;
966;SDS011;56108;48.730;9.304;2022-08-19T10:20:03;32.38;;;28.45;;
966;SDS011;56108;48.730;9.304;2022-08-19T10:22:12;31.95;;;28.75;;
966;SDS011;56108;48.730;9.304;2022-08-19T10:24:23;30.95;;;27.92;;
966;SDS011;56108;48.730;9.304;2022-08-19T10:26:33;31.42;;;28.52;;
966;SDS011;56108;48.730;9.304;2022-08-19T10:28:42;31.67;;;28.67;;
966;SDS011;56108;48.730;9.304;2022-08-19T10:30:51;32.78;;;29.30;;
966;SDS011;56108;48.730;9.304;2022-08-19T10:33:00;31.75;;;28.75;;
966;SDS011;56108;48.730;9.304;2022-08-19T10:35:16;31.95;;;28.95;;
966;SDS011;56108;48.730;9.304;2022-08-19T10:37:26;31.58;;;28.45;;
966;SDS011;56108;48.730;9.304;2022-08-19T10:39:38;31.23;;;28.17;;
966;SDS011;56108;48.730;9.304;2022-08-19T10:41:47;32.03;;;28.88;;
966;SDS011;56108;48.730;9.304;2022-08-19T10:43:58;30.98;;;28.10;;
966;SDS011;56108;48.730;9.304;2022-08-19T10:46:09;32.40;;;29.30;;
966;SDS011;56108;48.730;9.304;2022-08-19T10:48:22;31.23;;;28.20;;
966;SDS011;56108;48.730;9.304;2022-08-19T10:50:32;32.95;;;29.77;;
966;SDS011;56108;48.730;9.304;2022-08-19T10:52:52;29.55;;;26.65;;
966;SDS011;56108;48.730;9.304;2022-08-19T10:55:04;30.27;;;27.42;;
966;SDS011;56108;48.730;9.304;2022-08-19T10:57:30;29.10;;;26.25;;
966;SDS011;56108;48.730;9.304;2022-08-19T10:59:58;33.58;;;30.27;;
966;SDS011;56108;48.730;9.304;2022-08-19T11:02:08;31.88;;;28.58;;
966;SDS011;56108;48.730;9.304;2022-08-19T11:04:22;32.55;;;29.45;;
966;SDS011;56108;48.730;9.304;2022-08-19T11:06:33;33.70;;;30.50;;
966;SDS011;56108;48.730;9.304;2022-08-19T11:08:42;33.80;;;30.60;;
966;SDS011;56108;48.730;9.304;2022-08-19T11:10:54;34.40;;;30.75;;
966;SDS011;56108;48.730;9.304;2022-08-19T11:13:05;34.67;;;31.33;;
966;SDS011;56108;48.730;9.304;2022-08-19T11:15:13;35.80;;;32.20;;
966;SDS011;56108;48.730;9.304;2022-08-19T11:17:23;38.45;;;34.55;;
966;SDS011;56108;48.730;9.304;2022-08-19T11:19:32;36.88;;;33.20;;
966;SDS011;56108;48.730;9.304;2022-08-19T11:21:42;37.45;;;33.38;;
966;SDS011;56108;48.730;9.304;2022-08-19T11:23:55;37.38;;;33.60;;
966;SDS011;56108;48.730;9.304;2022-08-19T11:26:07;37.95;;;34.05;;
966;SDS011;56108;48.730;9.304;2022-08-19T11:28:15;38.95;;;34.88;;
966;SDS011;56108;48.730;9.304;2022-08-19T11:30:24;41.85;;;37.28;;
966;SDS011;56108;48.730;9.304;2022-08-19T11:32:32;42.15;;;37.75;;
966;SDS011;56108;48.730;9.304;2022-08-19T11:34:42;43.92;;;39.08;;
966;SDS011;56108;48.730;9.304;2022-08-19T11:36:51;41.33;;;36.90;;
966;SDS011;56108;48.730;9.304;2022-08-19T11:39:02;44.97;;;39.08;;
966;SDS011;56108;48.730;9.304;2022-08-19T11:41:14;42.97;;;38.75;;
966;SDS011;56108;48.730;9.304;2022-08-19T11:43:28;42.50;;;38.17;;
966;SDS011;56108;48.730;9.304;2022-08-19T11:45:41;45.70;;;41.05;;
966;SDS011;56108;48.730;9.304;2022-08-19T11:47:49;51.65;;;45.95;;
966;SDS011;56108;48.730;9.304;2022-08-19T11:49:57;47.20;;;42.30;;
966;SDS011;56108;48.730;9.304;2022-08-19T11:52:05;48.55;;;43.70;;
966;SDS011;56108;48.730;9.304;2022-08-19T11:54:14;45.55;;;40.75;;
966;SDS011;56108;48.730;9.304;2022-08-19T11:56:26;41.63;;;37.38;;
966;SDS011;56108;48.730;9.304;2022-08-19T11:58:35;39.80;;;35.55;;
966;SDS011;56108;48.730;9.304;2022-08-19T12:00:43;39.70;;;35.58;;
966;SDS011;56108;48.730;9.304;2022-08-19T12:02:52;40.60;;;36.65;;
966;SDS011;56108;48.730;9.304;2022-08-19T12:05:02;37.20;;;33.38;;
966;SDS011;56108;48.730;9.304;2022-08-19T12:07:16;37.17;;;33.22;;
966;SDS011;56108;48.730;9.304;2022-08-19T12:09:24;38.53;;;34.53;;
966;SDS011;56108;48.730;9.304;2022-08-19T12:11:37;39.40;;;35.22;;
966;SDS011;56108;48.730;9.304;2022-08-19T12:13:46;43.75;;;39.08;;
966;SDS011;56108;48.730;9.304;2022-08-19T12:15:57;41.42;;;37.05;;
966;SDS011;56108;48.730;9.304;2022-08-19T12:18:06;41.17;;;36.72;;
966;SDS011;56108;48.730;9.304;2022-08-19T12:20:15;40.65;;;36.47;;
966;SDS011;56108;48.730;9.304;2022-08-19T12:22:26;41.55;;;37.15;;
966;SDS011;56108;48.730;9.304;2022-08-19T12:24:37;42.63;;;38.10;;
966;SDS011;56108;48.730;9.304;2022-08-19T12:26:48;41.03;;;36.60;;
966;SDS011;56108;48.730;9.304;2022-08-19T12:28:57;42.40;;;38.00;;
966;SDS011;56108;48.730;9.304;2022-08-19T12:31:06;43.05;;;37.90;;
966;SDS011;56108;48.730;9.304;2022-08-19T12:33:16;41.80;;;36.78;;
966;SDS011;56108;48.730;9.304;2022-08-19T12:35:28;41.20;;;36.95;;
966;SDS011;56108;48.730;9.304;2022-08-19T12:37:36;43.47;;;38.80;;
966;SDS011;56108;48.730;9.304;2022-08-19T12:40:00;42.10;;;37.65;;
966;SDS011;56108;48.730;9.304;2022-08-19T12:42:11;43.78;;;39.38;;
966;SDS011;56108;48.730;9.304;2022-08-19T12:44:20;40.20;;;36.20;;
966;SDS011;56108;48.730;9.304;2022-08-19T12:46:33;42.20;;;37.58;;
966;SDS011;56108;48.730;9.304;2022-08-19T12:48:43;42.38;;;37.30;;
966;SDS011;56108;48.730;9.304;2022-08-19T12:51:00;40.63;;;36.35;;
966;SDS011;56108;48.730;9.304;2022-08-19T12:53:14;41.78;;;37.25;;
966;SDS011;56108;48.730;9.304;2022-08-19T12:55:22;44.95;;;38.42;;
966;SDS011;56108;48.730;9.304;2022-08-19T12:57:35;42.92;;;37.85;;
966;SDS011;56108;48.730;9.304;2022-08-19T12:59:43;41.25;;;36.67;;
966;SDS011;56108;48.730;9.304;2022-08-19T13:01:51;41.10;;;36.67;;
966;SDS011;56108;48.730;9.304;2022-08-19T13:04:02;42.92;;;38.33;;
966;SDS011;56108;48.730;9.304;2022-08-19T13:06:10;42.65;;;38.22;;
966;SDS011;56108;48.730;9.304;2022-08-19T13:08:23;45.80;;;40.72;;
966;SDS011;56108;48.730;9.304;2022-08-19T13:10:32;43.33;;;38.78;;
966;SDS011;56108;48.730;9.304;2022-08-19T13:12:46;41.40;;;37.00;;
966;SDS011;56108;48.730;9.304;2022-08-19T13:14:56;48.03;;;38.97;;